createdAt,value
2023-04-13T00:00:26.067Z,99753.75
2023-04-13T00:02:54.511Z,99750.41
2023-04-13T00:05:22.706Z,99751.34
2023-04-13T00:07:49.873Z,99749.13
2023-04-13T00:10:19.065Z,99750.66
2023-04-13T00:12:49.143Z,99749.34
2023-04-13T00:15:17.422Z,99749.34
2023-04-13T00:17:45.458Z,99743.03
2023-04-13T00:20:15.237Z,99740.16
2023-04-13T00:22:43.192Z,99730.88
2023-04-13T00:25:11.743Z,99725.88
2023-04-13T00:27:39.346Z,99720.19
2023-04-13T00:30:10.227Z,99718.28
2023-04-13T00:32:38.710Z,99714.72
2023-04-13T00:35:06.143Z,99718.00
2023-04-13T00:37:33.232Z,99712.81
2023-04-13T00:40:00.277Z,99706.84
2023-04-13T00:42:28.153Z,99700.25
2023-04-13T00:44:55.359Z,99705.84
2023-04-13T00:47:28.038Z,99694.84
2023-04-13T00:49:55.868Z,99685.47
2023-04-13T00:52:23.143Z,99681.00
2023-04-13T00:54:51.623Z,99679.94
2023-04-13T00:57:19.176Z,99677.22
2023-04-13T00:59:49.438Z,99669.22
2023-04-13T01:02:16.946Z,99669.03
2023-04-13T01:04:45.765Z,99663.78
2023-04-13T01:07:12.954Z,99660.19
2023-04-13T01:09:42.324Z,99658.78
2023-04-13T01:12:28.218Z,99658.47
2023-04-13T01:14:58.821Z,99651.72
2023-04-13T01:17:28.831Z,99650.91
2023-04-13T01:20:22.213Z,99652.13
2023-04-13T01:23:00.428Z,99648.06
2023-04-13T01:25:27.494Z,99649.06
2023-04-13T01:28:00.154Z,99655.88
2023-04-13T01:30:31.506Z,99654.72
2023-04-13T01:33:02.196Z,99646.75
2023-04-13T01:35:30.954Z,99645.38
2023-04-13T01:37:59.036Z,99642.81
2023-04-13T01:40:28.341Z,99641.94
2023-04-13T01:42:57.536Z,99638.81
2023-04-13T01:45:36.180Z,99643.47
2023-04-13T01:48:23.774Z,99643.38
2023-04-13T01:51:16.537Z,99650.69
2023-04-13T01:53:51.147Z,99664.53
2023-04-13T01:56:19.691Z,99660.69
2023-04-13T01:58:50.045Z,99663.50
2023-04-13T02:01:18.074Z,99672.84
2023-04-13T02:03:45.580Z,99667.81
2023-04-13T02:06:12.931Z,99651.59
2023-04-13T02:08:42.174Z,99649.81
2023-04-13T02:11:10.206Z,99657.91
2023-04-13T02:13:37.723Z,99653.78
2023-04-13T02:16:09.378Z,99651.31
2023-04-13T02:18:36.707Z,99637.97
2023-04-13T02:21:08.409Z,99637.69
2023-04-13T02:23:36.424Z,99642.53
2023-04-13T02:26:04.590Z,99640.00
2023-04-13T02:28:31.781Z,99643.19
2023-04-13T02:31:03.658Z,99646.50
2023-04-13T02:33:31.844Z,99641.50
2023-04-13T02:36:01.207Z,99644.06
2023-04-13T02:38:29.630Z,99645.34
2023-04-13T02:41:03.271Z,99639.72
2023-04-13T02:43:30.380Z,99647.97
2023-04-13T02:45:58.062Z,99640.69
2023-04-13T02:48:29.707Z,99655.09
2023-04-13T02:50:57.213Z,99655.56
2023-04-13T02:53:29.422Z,99657.47
2023-04-13T02:56:02.264Z,99654.41
2023-04-13T02:58:31.676Z,99647.09
2023-04-13T03:01:02.497Z,99643.50
2023-04-13T03:03:30.540Z,99636.47
2023-04-13T03:05:58.754Z,99636.72
2023-04-13T03:08:37.031Z,99630.56
2023-04-13T03:11:18.400Z,99620.97
2023-04-13T03:13:54.094Z,99620.03
2023-04-13T03:16:21.170Z,99627.94
2023-04-13T03:18:48.310Z,99630.66
2023-04-13T03:21:15.961Z,99627.28
2023-04-13T03:24:00.124Z,99629.34
2023-04-13T03:26:27.479Z,99632.97
2023-04-13T03:28:57.764Z,99623.66
2023-04-13T03:31:26.426Z,99620.59
2023-04-13T03:33:53.572Z,99621.63
2023-04-13T03:36:21.096Z,99618.88
2023-04-13T03:38:48.151Z,99612.66
2023-04-13T03:41:15.843Z,99613.84
2023-04-13T03:43:46.682Z,99600.66
2023-04-13T03:46:13.868Z,99598.31
2023-04-13T03:48:42.123Z,99596.22
2023-04-13T03:51:11.848Z,99596.63
2023-04-13T03:53:48.491Z,99578.69
2023-04-13T03:56:18.726Z,99578.75
2023-04-13T03:58:46.031Z,99585.84
2023-04-13T04:01:16.617Z,99582.25
2023-04-13T04:03:47.650Z,99586.28
2023-04-13T04:06:14.973Z,99585.97
2023-04-13T04:08:49.909Z,99583.59
2023-04-13T04:11:35.076Z,99583.88
2023-04-13T04:14:02.989Z,99593.81
2023-04-13T04:16:30.830Z,99597.84
2023-04-13T04:19:06.184Z,99598.66
2023-04-13T04:21:36.999Z,99595.16
2023-04-13T04:24:12.388Z,99591.16
2023-04-13T04:26:49.752Z,99585.38
2023-04-13T04:29:17.445Z,99586.44
2023-04-13T04:31:44.648Z,99587.84
2023-04-13T04:34:16.859Z,99584.69
2023-04-13T04:36:45.558Z,99599.75
2023-04-13T04:39:14.367Z,99588.09
2023-04-13T04:41:54.186Z,99586.97
2023-04-13T04:44:25.421Z,99592.22
2023-04-13T04:46:54.178Z,99587.50
2023-04-13T04:49:21.933Z,99582.75
2023-04-13T04:51:49.709Z,99581.88
2023-04-13T04:54:19.692Z,99584.16
2023-04-13T04:56:48.165Z,99578.19
2023-04-13T04:59:19.571Z,99576.63
2023-04-13T05:01:56.653Z,99581.34
2023-04-13T05:04:23.764Z,99582.22
2023-04-13T05:06:51.074Z,99577.56
2023-04-13T05:09:22.466Z,99574.59
2023-04-13T05:11:53.961Z,99580.03
2023-04-13T05:14:21.722Z,99571.16
2023-04-13T05:16:48.972Z,99572.03
2023-04-13T05:19:24.020Z,99578.81
2023-04-13T05:21:53.759Z,99576.41
2023-04-13T05:24:22.371Z,99572.81
2023-04-13T05:26:50.887Z,99579.13
2023-04-13T05:29:22.106Z,99574.47
2023-04-13T05:31:49.843Z,99582.66
2023-04-13T05:34:18.377Z,99582.66
2023-04-13T05:37:01.463Z,99584.16
2023-04-13T05:39:28.572Z,99581.44
2023-04-13T05:41:56.248Z,99587.75
2023-04-13T05:44:23.864Z,99588.56
2023-04-13T05:46:52.673Z,99602.59
2023-04-13T05:49:20.027Z,99596.25
2023-04-13T05:51:48.268Z,99608.56
2023-04-13T05:54:17.480Z,99603.91
2023-04-13T05:56:48.521Z,99611.66
2023-04-13T05:59:16.320Z,99613.84
2023-04-13T06:01:44.711Z,99619.06
2023-04-13T06:04:12.933Z,99616.66
2023-04-13T06:06:40.916Z,99611.66
2023-04-13T06:09:08.972Z,99610.44
2023-04-13T06:11:36.704Z,99595.56
2023-04-13T06:14:03.796Z,99602.06
2023-04-13T06:16:30.999Z,99596.19
2023-04-13T06:18:59.489Z,99589.84
2023-04-13T06:21:28.701Z,99587.84
2023-04-13T06:23:56.052Z,99590.81
2023-04-13T06:26:33.877Z,99590.75
2023-04-13T06:29:02.876Z,99595.41
2023-04-13T06:31:37.071Z,99591.53
2023-04-13T06:34:09.704Z,99589.34
2023-04-13T06:36:40.623Z,99586.16
2023-04-13T06:39:09.477Z,99581.34
2023-04-13T06:41:37.955Z,99579.75
2023-04-13T06:44:39.346Z,99583.91
2023-04-13T06:47:06.466Z,99586.41
2023-04-13T06:49:34.170Z,99583.09
2023-04-13T06:52:02.317Z,99576.34
2023-04-13T06:54:30.407Z,99566.56
2023-04-13T06:57:03.830Z,99568.34
2023-04-13T06:59:31.035Z,99560.00
2023-04-13T07:01:58.248Z,99551.22
2023-04-13T07:04:28.600Z,99552.78
2023-04-13T07:06:57.092Z,99543.63
2023-04-13T07:09:25.911Z,99544.50
2023-04-13T07:11:53.370Z,99537.81
2023-04-13T07:14:21.321Z,99538.00
2023-04-13T07:16:48.741Z,99544.47
2023-04-13T07:19:17.018Z,99540.97
2023-04-13T07:21:44.255Z,99533.16
2023-04-13T07:24:11.424Z,99529.31
2023-04-13T07:26:42.492Z,99522.41
2023-04-13T07:29:13.586Z,99526.00
2023-04-13T07:31:44.822Z,99523.53
2023-04-13T07:34:12.243Z,99531.28
2023-04-13T07:36:44.107Z,99530.72
2023-04-13T07:39:15.059Z,99523.13
2023-04-13T07:41:47.341Z,99522.66
2023-04-13T07:44:19.134Z,99512.66
2023-04-13T07:46:46.594Z,99514.28
2023-04-13T07:49:13.690Z,99515.16
2023-04-13T07:51:42.590Z,99513.88
2023-04-13T07:54:09.920Z,99506.03
2023-04-13T07:56:37.373Z,99509.25
2023-04-13T07:59:06.451Z,99501.47
2023-04-13T08:01:35.058Z,99512.56
2023-04-13T08:04:03.472Z,99510.69
2023-04-13T08:06:32.179Z,99509.00
2023-04-13T08:09:01.595Z,99507.28
2023-04-13T08:11:28.719Z,99499.09
2023-04-13T08:14:02.617Z,99498.41
2023-04-13T08:16:34.209Z,99495.38
2023-04-13T08:19:03.970Z,99497.53
2023-04-13T08:21:37.417Z,99501.16
2023-04-13T08:24:04.984Z,99501.16
2023-04-13T08:26:32.110Z,99500.34
2023-04-13T08:29:01.678Z,99501.84
2023-04-13T08:31:29.829Z,99510.09
2023-04-13T08:34:01.579Z,99517.00
2023-04-13T08:36:31.782Z,99517.47
2023-04-13T08:39:05.935Z,99514.53
2023-04-13T08:41:38.903Z,99504.53
2023-04-13T08:44:08.621Z,99516.53
2023-04-13T08:46:41.107Z,99517.38
2023-04-13T08:49:09.594Z,99504.38
2023-04-13T08:51:52.445Z,99497.03
2023-04-13T08:54:20.291Z,99490.28
2023-04-13T08:56:47.859Z,99496.66
2023-04-13T08:59:21.469Z,99503.75
2023-04-13T09:01:49.927Z,99498.38
2023-04-13T09:04:20.750Z,99512.69
2023-04-13T09:06:51.810Z,99506.31
2023-04-13T09:09:21.292Z,99501.75
2023-04-13T09:11:50.850Z,99494.50
2023-04-13T09:14:22.114Z,99487.91
2023-04-13T09:16:50.171Z,99480.44
2023-04-13T09:19:31.686Z,99466.53
2023-04-13T09:21:59.171Z,99465.09
2023-04-13T09:24:27.324Z,99476.03
2023-04-13T09:26:54.379Z,99480.19
2023-04-13T09:29:24.384Z,99475.63
2023-04-13T09:31:51.430Z,99483.53
2023-04-13T09:34:28.332Z,99486.94
2023-04-13T09:36:56.795Z,99494.63
2023-04-13T09:39:28.120Z,99489.31
2023-04-13T09:41:55.780Z,99482.66
2023-04-13T09:44:34.581Z,99478.06
2023-04-13T09:47:03.034Z,99481.97
2023-04-13T09:49:41.643Z,99472.44
2023-04-13T09:52:20.785Z,99484.13
2023-04-13T09:54:55.014Z,99481.44
2023-04-13T09:57:28.928Z,99483.22
2023-04-13T09:59:57.805Z,99478.16
2023-04-13T10:02:25.970Z,99471.34
2023-04-13T10:04:54.145Z,99471.31
2023-04-13T10:07:22.799Z,99482.06
2023-04-13T10:09:51.161Z,99479.97
2023-04-13T10:12:18.217Z,99471.34
2023-04-13T10:14:48.425Z,99466.66
2023-04-13T10:17:25.754Z,99449.88
2023-04-13T10:19:53.642Z,99449.03
2023-04-13T10:22:22.883Z,99440.75
2023-04-13T10:24:51.161Z,99443.44
2023-04-13T10:27:21.627Z,99445.03
2023-04-13T10:29:50.051Z,99435.75
2023-04-13T10:32:21.161Z,99429.06
2023-04-13T10:34:48.984Z,99420.81
2023-04-13T10:37:19.327Z,99417.63
2023-04-13T10:39:46.884Z,99416.72
2023-04-13T10:42:16.005Z,99421.38
2023-04-13T10:44:48.173Z,99411.63
2023-04-13T10:47:16.418Z,99412.06
2023-04-13T10:49:44.201Z,99404.78
2023-04-13T10:52:11.614Z,99393.91
2023-04-13T10:54:39.650Z,99396.22
2023-04-13T10:57:09.096Z,99391.25
2023-04-13T10:59:57.798Z,99383.06
2023-04-13T11:02:26.618Z,99383.47
2023-04-13T11:04:54.151Z,99369.91
2023-04-13T11:07:23.343Z,99375.50
2023-04-13T11:09:53.485Z,99388.06
2023-04-13T11:12:20.744Z,99384.50
2023-04-13T11:14:48.207Z,99386.09
2023-04-13T11:17:16.775Z,99388.34
2023-04-13T11:19:49.821Z,99372.75
2023-04-13T11:22:18.641Z,99380.72
2023-04-13T11:24:46.305Z,99385.47
2023-04-13T11:27:27.026Z,99381.63
2023-04-13T11:30:00.960Z,99385.63
2023-04-13T11:32:28.225Z,99386.44
2023-04-13T11:35:15.692Z,99391.56
2023-04-13T11:37:44.299Z,99385.53
2023-04-13T11:40:17.563Z,99385.53
2023-04-13T11:42:46.609Z,99383.44
2023-04-13T11:45:21.160Z,99395.03
2023-04-13T11:47:52.420Z,99396.59
2023-04-13T11:50:20.517Z,99391.94
2023-04-13T11:52:49.018Z,99397.41
2023-04-13T11:55:23.166Z,99391.06
2023-04-13T11:57:52.183Z,99389.28
2023-04-13T12:00:24.488Z,99392.78
2023-04-13T12:03:01.989Z,99397.44
2023-04-13T12:05:32.407Z,99393.00
2023-04-13T12:08:02.615Z,99388.50
2023-04-13T12:10:39.197Z,99378.59
2023-04-13T12:16:01.502Z,99376.47
2023-04-13T12:18:39.989Z,99368.44
2023-04-13T12:21:07.751Z,99373.22
2023-04-13T12:23:35.009Z,99371.81
2023-04-13T12:26:32.151Z,99380.50
2023-04-13T12:28:59.353Z,99382.44
2023-04-13T12:31:32.386Z,99381.94
2023-04-13T12:33:59.694Z,99375.91
2023-04-13T12:36:31.511Z,99350.91
2023-04-13T12:38:59.480Z,99346.31
2023-04-13T12:41:26.986Z,99347.22
2023-04-13T12:43:54.364Z,99335.22
2023-04-13T12:46:22.052Z,99351.03
2023-04-13T12:48:49.224Z,99347.25
2023-04-13T12:51:16.266Z,99353.22
2023-04-13T12:53:43.346Z,99344.75
2023-04-13T12:56:11.019Z,99353.81
2023-04-13T12:58:38.360Z,99360.94
2023-04-13T13:01:05.591Z,99353.53
2023-04-13T13:03:32.755Z,99338.28
2023-04-13T13:05:59.874Z,99332.06
2023-04-13T13:08:27.113Z,99326.19
2023-04-13T13:10:54.248Z,99319.53
2023-04-13T13:13:21.332Z,99303.34
2023-04-13T13:15:48.444Z,99291.63
2023-04-13T13:18:15.578Z,99293.16
2023-04-13T13:20:42.675Z,99292.38
2023-04-13T13:23:10.819Z,99287.25
2023-04-13T13:25:39.700Z,99289.63
2023-04-13T13:28:13.815Z,99295.47
2023-04-13T13:30:41.493Z,99292.94
2023-04-13T13:33:08.595Z,99296.59
2023-04-13T13:35:35.869Z,99301.22
2023-04-13T13:38:03.373Z,99309.66
2023-04-13T13:40:30.505Z,99297.50
2023-04-13T13:42:57.688Z,99286.81
2023-04-13T13:45:24.833Z,99294.81
2023-04-13T13:47:54.805Z,99283.19
2023-04-13T13:50:30.897Z,99279.72
2023-04-13T13:53:04.243Z,99271.41
2023-04-13T13:55:37.705Z,99266.44
2023-04-13T13:58:04.826Z,99259.75
2023-04-13T14:00:32.211Z,99251.50
2023-04-13T14:03:00.769Z,99261.66
2023-04-13T14:05:28.070Z,99267.94
2023-04-13T14:07:55.190Z,99272.34
2023-04-13T14:10:22.343Z,99264.78
2023-04-13T14:12:50.767Z,99248.69
2023-04-13T14:15:18.859Z,99248.84
2023-04-13T14:17:55.536Z,99255.97
2023-04-13T14:20:34.097Z,99260.16
2023-04-13T14:23:01.275Z,99269.59
2023-04-13T14:25:28.372Z,99263.47
2023-04-13T14:27:55.444Z,99259.63
2023-04-13T14:30:23.671Z,99255.31
2023-04-13T14:32:51.958Z,99256.53
2023-04-13T14:35:20.059Z,99254.97
2023-04-13T14:37:47.562Z,99253.06
2023-04-13T14:40:17.126Z,99251.25
2023-04-13T14:42:45.557Z,99251.19
2023-04-13T14:45:12.766Z,99242.34
2023-04-13T14:47:40.229Z,99241.63
2023-04-13T14:50:08.399Z,99236.47
2023-04-13T14:52:35.778Z,99226.16
2023-04-13T14:55:05.011Z,99224.00
2023-04-13T14:57:33.304Z,99216.75
2023-04-13T15:00:00.481Z,99215.19
2023-04-13T15:02:31.303Z,99213.41
2023-04-13T15:04:58.542Z,99212.03
2023-04-13T15:07:29.137Z,99203.84
2023-04-13T15:09:56.187Z,99214.34
2023-04-13T15:12:23.643Z,99206.66
2023-04-13T15:14:51.099Z,99203.66
2023-04-13T15:17:18.194Z,99197.44
2023-04-13T15:19:45.286Z,99206.59
2023-04-13T15:22:12.662Z,99200.53
2023-04-13T15:24:39.794Z,99203.47
2023-04-13T15:27:06.873Z,99207.19
2023-04-13T15:29:33.962Z,99206.28
2023-04-13T15:32:01.560Z,99211.06
2023-04-13T15:34:28.765Z,99215.34
2023-04-13T15:36:57.062Z,99214.63
2023-04-13T15:39:24.271Z,99204.47
2023-04-13T15:41:54.184Z,99191.72
2023-04-13T15:44:21.388Z,99193.19
2023-04-13T15:46:48.518Z,99198.81
2023-04-13T15:49:15.658Z,99201.91
2023-04-13T15:51:42.715Z,99202.25
2023-04-13T15:54:09.787Z,99209.03
2023-04-13T15:56:36.796Z,99203.91
2023-04-13T15:59:03.848Z,99201.84
2023-04-13T16:01:43.580Z,99201.78
2023-04-13T16:04:11.413Z,99216.53
2023-04-13T16:06:38.627Z,99224.94
2023-04-13T16:09:05.838Z,99256.09
2023-04-13T16:11:32.858Z,99275.72
2023-04-13T16:14:07.150Z,99310.53
2023-04-13T16:16:44.472Z,99327.00
2023-04-13T16:19:12.285Z,99343.19
2023-04-13T16:21:45.396Z,99361.03
2023-04-13T16:24:17.110Z,99373.56
2023-04-13T16:26:45.040Z,99380.31
2023-04-13T16:29:12.175Z,99377.31
2023-04-13T16:31:39.459Z,99372.34
2023-04-13T16:34:22.224Z,99392.94
2023-04-13T16:36:52.722Z,99413.38
2023-04-13T16:39:20.997Z,99422.41
2023-04-13T16:41:48.062Z,99420.28
2023-04-13T16:44:15.556Z,99430.72
2023-04-13T16:46:42.782Z,99433.50
2023-04-13T16:49:10.320Z,99436.88
2023-04-13T16:51:37.460Z,99436.94
2023-04-13T16:54:06.431Z,99451.06
2023-04-13T16:56:33.463Z,99460.78
2023-04-13T16:59:01.383Z,99478.06
2023-04-13T17:01:29.042Z,99485.47
2023-04-13T17:03:56.669Z,99492.75
2023-04-13T17:06:23.906Z,99504.06
2023-04-13T17:08:51.003Z,99516.25
2023-04-13T17:11:18.170Z,99516.78
2023-04-13T17:13:46.327Z,99518.28
2023-04-13T17:16:13.460Z,99519.94
2023-04-13T17:18:40.790Z,99515.19
2023-04-13T17:21:07.960Z,99511.28
2023-04-13T17:23:35.038Z,99509.06
2023-04-13T17:26:03.609Z,99503.94
2023-04-13T17:28:30.866Z,99502.22
2023-04-13T17:30:57.995Z,99506.97
2023-04-13T17:33:27.920Z,99507.94
2023-04-13T17:35:55.365Z,99517.75
2023-04-13T17:38:22.696Z,99501.78
2023-04-13T17:40:50.958Z,99484.78
2023-04-13T17:43:18.243Z,99475.09
2023-04-13T17:45:45.344Z,99485.91
2023-04-13T17:48:12.528Z,99488.69
2023-04-13T17:50:39.608Z,99504.63
2023-04-13T17:53:06.705Z,99501.50
2023-04-13T17:55:35.823Z,99511.91
2023-04-13T17:58:02.842Z,99510.69
2023-04-13T18:00:29.866Z,99527.09
2023-04-13T18:02:57.863Z,99531.44
2023-04-13T18:05:25.800Z,99533.44
2023-04-13T18:07:52.895Z,99533.31
2023-04-13T18:10:20.031Z,99515.88
2023-04-13T18:13:05.883Z,99509.09
2023-04-13T18:15:32.941Z,99482.19
2023-04-13T18:18:00.081Z,99477.22
2023-04-13T18:20:27.247Z,99479.69
2023-04-13T18:22:54.281Z,99494.75
2023-04-13T18:25:21.413Z,99518.66
2023-04-13T18:27:48.689Z,99511.09
2023-04-13T18:30:15.853Z,99519.66
2023-04-13T18:32:42.960Z,99527.03
2023-04-13T18:35:12.334Z,99517.09
2023-04-13T18:37:39.424Z,99530.69
2023-04-13T18:40:07.170Z,99534.53
2023-04-13T18:42:34.310Z,99529.09
2023-04-13T18:45:01.440Z,99526.47
2023-04-13T18:47:28.632Z,99537.13
2023-04-13T18:49:56.976Z,99530.09
2023-04-13T18:52:25.908Z,99533.38
2023-04-13T18:54:55.808Z,99538.03
2023-04-13T18:57:22.994Z,99545.25
2023-04-13T18:59:50.260Z,99551.81
2023-04-13T19:02:17.430Z,99544.81
2023-04-13T19:04:44.740Z,99539.16
2023-04-13T19:07:11.817Z,99540.06
2023-04-13T19:09:39.069Z,99538.69
2023-04-13T19:12:06.924Z,99547.97
2023-04-13T19:14:34.027Z,99549.56
2023-04-13T19:17:01.188Z,99558.25
2023-04-13T19:19:28.938Z,99566.09
2023-04-13T19:21:56.057Z,99568.19
2023-04-13T19:24:23.237Z,99568.78
2023-04-13T19:26:50.445Z,99582.88
2023-04-13T19:29:17.651Z,99579.25
2023-04-13T19:31:45.336Z,99585.47
2023-04-13T19:34:13.182Z,99586.94
2023-04-13T19:36:40.830Z,99593.91
2023-04-13T19:39:08.513Z,99598.78
2023-04-13T19:41:37.325Z,99595.34
2023-04-13T19:44:05.432Z,99594.47
2023-04-13T19:46:32.863Z,99587.53
2023-04-13T19:49:01.867Z,99594.84
2023-04-13T19:51:29.690Z,99588.34
2023-04-13T19:53:57.798Z,99585.00
2023-04-13T19:56:25.192Z,99578.84
2023-04-13T19:58:52.270Z,99581.94
2023-04-13T20:01:21.113Z,99585.28
2023-04-13T20:03:48.598Z,99582.22
2023-04-13T20:06:16.058Z,99570.38
2023-04-13T20:08:44.511Z,99572.81
2023-04-13T20:11:11.919Z,99577.72
2023-04-13T20:13:39.610Z,99578.72
2023-04-13T20:16:07.281Z,99573.94
2023-04-13T20:18:34.375Z,99578.47
2023-04-13T20:21:01.513Z,99577.56
2023-04-13T20:23:29.849Z,99574.50
2023-04-13T20:25:57.374Z,99573.53
2023-04-13T20:28:24.448Z,99579.53
2023-04-13T20:30:52.004Z,99585.09
2023-04-13T20:33:19.153Z,99590.94
2023-04-13T20:35:46.219Z,99595.25
2023-04-13T20:38:13.992Z,99597.03
2023-04-13T20:40:41.904Z,99601.47
2023-04-13T20:43:09.645Z,99596.00
2023-04-13T20:45:36.744Z,99600.19
2023-04-13T20:48:48.468Z,99593.06
2023-04-13T20:50:53.824Z,99597.59
2023-04-13T20:53:21.030Z,99596.13
2023-04-13T20:55:48.914Z,99593.31
2023-04-13T20:58:16.104Z,99601.13
2023-04-13T21:00:44.816Z,99590.16
2023-04-13T21:03:12.397Z,99585.84
2023-04-13T21:05:40.610Z,99585.75
2023-04-13T21:08:07.728Z,99589.81
2023-04-13T21:10:34.856Z,99587.41
2023-04-13T21:13:01.969Z,99586.97
2023-04-13T21:15:29.543Z,99584.16
2023-04-13T21:17:56.690Z,99583.72
2023-04-13T21:20:24.055Z,99584.88
2023-04-13T21:22:51.113Z,99580.75
2023-04-13T21:25:18.209Z,99583.72
2023-04-13T21:27:45.340Z,99590.06
2023-04-13T21:30:12.493Z,99593.81
2023-04-13T21:32:39.607Z,99599.56
2023-04-13T21:35:07.095Z,99591.06
2023-04-13T21:37:34.257Z,99595.81
2023-04-13T21:40:01.459Z,99604.09
2023-04-13T21:42:28.501Z,99601.59
2023-04-13T21:44:56.947Z,99605.31
2023-04-13T21:47:24.162Z,99607.91
2023-04-13T21:49:51.428Z,99608.81
2023-04-13T21:52:18.564Z,99612.44
2023-04-13T21:54:45.691Z,99621.38
2023-04-13T21:57:13.072Z,99606.75
2023-04-13T21:59:40.543Z,99608.03
2023-04-13T22:02:07.718Z,99611.88
2023-04-13T22:04:34.935Z,99616.81
2023-04-13T22:07:01.983Z,99620.47
2023-04-13T22:09:29.087Z,99627.38
2023-04-13T22:11:56.172Z,99625.44
2023-04-13T22:14:25.852Z,99617.84
2023-04-13T22:16:54.002Z,99623.25
2023-04-13T22:19:21.125Z,99620.97
2023-04-13T22:21:48.269Z,99621.31
2023-04-13T22:24:16.090Z,99628.69
2023-04-13T22:26:43.220Z,99620.53
2023-04-13T22:29:10.550Z,99620.75
2023-04-13T22:31:37.716Z,99623.34
2023-04-13T22:34:04.800Z,99618.47
2023-04-13T22:36:32.113Z,99616.69
2023-04-13T22:38:59.283Z,99617.25
2023-04-13T22:41:26.575Z,99619.16
2023-04-13T22:43:53.620Z,99619.16
2023-04-13T22:46:20.909Z,99621.31
2023-04-13T22:48:48.322Z,99624.81
2023-04-13T22:51:15.552Z,99625.00
2023-04-13T22:53:42.591Z,99628.75
2023-04-13T22:56:09.778Z,99631.47
2023-04-13T22:58:36.871Z,99627.31
2023-04-13T23:01:04.604Z,99620.47
2023-04-13T23:03:31.846Z,99625.78
2023-04-13T23:05:59.106Z,99628.94
2023-04-13T23:08:26.341Z,99637.06
2023-04-13T23:10:53.546Z,99636.38
2023-04-13T23:13:20.820Z,99647.22
2023-04-13T23:15:47.890Z,99641.00
2023-04-13T23:18:14.984Z,99633.81
2023-04-13T23:20:42.079Z,99637.31
2023-04-13T23:23:09.201Z,99635.03
2023-04-13T23:25:36.404Z,99639.69
2023-04-13T23:28:03.452Z,99637.31
2023-04-13T23:30:30.582Z,99634.06
2023-04-13T23:32:57.783Z,99644.31
2023-04-13T23:35:24.886Z,99635.88
2023-04-13T23:37:52.149Z,99640.66
2023-04-13T23:40:19.330Z,99643.22
2023-04-13T23:42:46.368Z,99638.72
2023-04-13T23:45:13.392Z,99641.22
2023-04-13T23:47:40.674Z,99643.38
2023-04-13T23:50:07.962Z,99641.00
2023-04-13T23:52:35.009Z,99641.94
2023-04-13T23:55:02.079Z,99639.09
2023-04-13T23:57:33.272Z,99643.16
